Time;durP1;ratioP1;P1;durP2;ratioP2;P2;SDS_P1;SDS_P2;PMS_P1;PMS_P2;Temp;Humidity;BMP_temperature;BMP_pressure;BME280_temperature;BME280_humidity;BME280_pressure;Samples;Min_cycle;Max_cycle;Signal;HPM_P1;HPM_P2
2022/05/15 00:00:37;;;;;;;17.58;9.77;;;14.20;99.90;;;;;;2087746;28;20112;-70
2022/05/15 00:01:38;;;;;;;17.50;10.60;;;14.10;99.90;;;;;;2088166;28;20028;-70
2022/05/15 00:02:39;;;;;;;15.38;10.05;;;14.10;99.90;;;;;;2087254;28;20029;-68
2022/05/15 00:03:40;;;;;;;18.00;9.95;;;14.10;99.90;;;;;;2087243;28;20021;-70
2022/05/15 00:04:41;;;;;;;17.77;10.25;;;14.10;99.90;;;;;;2087856;28;20486;-70
2022/05/15 00:05:43;;;;;;;16.45;10.45;;;14.00;99.90;;;;;;2087497;28;20040;-70
2022/05/15 00:06:44;;;;;;;16.75;10.65;;;14.00;99.90;;;;;;2087290;28;20049;-71
2022/05/15 00:07:44;;;;;;;16.88;10.38;;;14.00;99.90;;;;;;2087534;28;20068;-70
2022/05/15 00:08:45;;;;;;;16.05;10.90;;;14.00;99.90;;;;;;2087724;28;20021;-68
2022/05/15 00:09:46;;;;;;;17.02;10.60;;;14.00;99.90;;;;;;2087902;28;20044;-70
2022/05/15 00:10:47;;;;;;;17.45;10.65;;;13.90;99.90;;;;;;2087796;28;20078;-71
2022/05/15 00:11:48;;;;;;;15.80;10.45;;;13.90;99.90;;;;;;2095517;28;20028;-70
2022/05/15 00:12:48;;;;;;;13.40;9.50;;;13.90;99.90;;;;;;2095515;28;20120;-70
2022/05/15 00:13:49;;;;;;;14.35;10.00;;;13.80;99.90;;;;;;2087938;28;20095;-70
2022/05/15 00:14:50;;;;;;;16.85;10.40;;;13.80;99.90;;;;;;2087251;28;20033;-70
2022/05/15 00:15:51;;;;;;;15.65;9.82;;;13.70;99.90;;;;;;2087393;28;20104;-70
2022/05/15 00:16:51;;;;;;;15.00;10.07;;;13.70;99.90;;;;;;2095560;28;20032;-70
2022/05/15 00:17:52;;;;;;;15.60;10.13;;;13.70;99.90;;;;;;2087642;28;20049;-71
2022/05/15 00:18:52;;;;;;;16.45;10.65;;;13.70;99.90;;;;;;2088611;28;20052;-71
2022/05/15 00:19:53;;;;;;;16.55;10.52;;;13.70;99.90;;;;;;2088859;28;20067;-70
2022/05/15 00:20:54;;;;;;;17.50;10.70;;;13.70;99.90;;;;;;2089431;28;20029;-70
2022/05/15 00:21:54;;;;;;;15.45;10.00;;;13.60;99.90;;;;;;2088648;28;20112;-70
2022/05/15 00:22:55;;;;;;;16.70;10.73;;;13.60;99.90;;;;;;2088622;28;20036;-70
2022/05/15 00:23:56;;;;;;;15.93;10.30;;;13.60;99.90;;;;;;2089342;28;20017;-70
2022/05/15 00:24:56;;;;;;;14.73;10.02;;;13.60;99.90;;;;;;2088496;28;20029;-70
2022/05/15 00:25:58;;;;;;;16.08;10.30;;;13.50;99.90;;;;;;2087943;28;20024;-70
2022/05/15 00:26:58;;;;;;;15.25;10.27;;;13.50;99.90;;;;;;2088315;28;20368;-70
2022/05/15 00:27:59;;;;;;;19.63;10.95;;;13.60;99.90;;;;;;2088470;28;20056;-70
2022/05/15 00:29:00;;;;;;;14.55;10.10;;;13.50;99.90;;;;;;2088768;28;20110;-70
2022/05/15 00:30:00;;;;;;;16.08;10.93;;;13.50;99.90;;;;;;2089334;28;20029;-70
2022/05/15 00:31:03;;;;;;;14.38;9.90;;;13.50;99.90;;;;;;2089388;28;20475;-70
2022/05/15 00:32:04;;;;;;;16.05;10.10;;;13.50;99.90;;;;;;2088708;28;20048;-70
2022/05/15 00:33:05;;;;;;;16.27;10.10;;;13.50;99.90;;;;;;2088657;28;20036;-70
2022/05/15 00:34:05;;;;;;;16.65;10.23;;;13.50;99.90;;;;;;2096861;28;20513;-70
2022/05/15 00:35:07;;;;;;;14.90;10.25;;;13.50;99.90;;;;;;2080556;28;20064;-70
2022/05/15 00:36:08;;;;;;;18.70;10.90;;;13.50;99.90;;;;;;2088963;28;20074;-70
2022/05/15 00:37:08;;;;;;;17.63;11.20;;;13.50;99.90;;;;;;2089450;28;20071;-70
2022/05/15 00:38:10;;;;;;;14.75;10.98;;;13.50;99.90;;;;;;2089255;28;20495;-70
2022/05/15 00:39:11;;;;;;;17.48;11.18;;;13.50;99.90;;;;;;2088601;28;20021;-70
2022/05/15 00:40:14;;;;;;;18.55;11.27;;;13.50;99.90;;;;;;2080467;28;20036;-70
2022/05/15 00:41:15;;;;;;;18.20;11.50;;;13.50;99.90;;;;;;2088748;28;20041;-70
2022/05/15 00:42:16;;;;;;;18.60;11.25;;;13.50;99.90;;;;;;2088859;28;20051;-70
2022/05/15 00:43:42;;;;;;;20.30;11.27;;;13.50;99.90;;;;;;2088976;28;20444;-70
2022/05/15 00:44:42;;;;;;;18.30;11.30;;;13.40;99.90;;;;;;2096950;28;20033;-70
2022/05/15 00:45:43;;;;;;;18.15;11.27;;;13.40;99.90;;;;;;2088856;28;20025;-70
2022/05/15 00:46:44;;;;;;;19.00;11.18;;;13.40;99.90;;;;;;2080635;28;20876;-70
2022/05/15 00:47:45;;;;;;;16.83;10.80;;;13.40;99.90;;;;;;2088746;28;20188;-69
2022/05/15 00:48:47;;;;;;;15.93;10.55;;;13.30;99.90;;;;;;2088743;28;20097;-70
2022/05/15 00:49:48;;;;;;;17.92;11.25;;;13.30;99.90;;;;;;2088774;28;20124;-71
2022/05/15 00:50:50;;;;;;;17.20;11.02;;;13.30;99.90;;;;;;2088770;28;20021;-69
2022/05/15 00:51:58;;;;;;;16.10;11.02;;;13.30;99.90;;;;;;2088800;28;20372;-69
2022/05/15 00:53:05;;;;;;;17.00;10.43;;;13.20;99.90;;;;;;2089471;28;20024;-69
2022/05/15 00:54:21;;;;;;;15.77;11.07;;;13.20;99.90;;;;;;2089560;28;20017;-69
2022/05/15 00:55:27;;;;;;;14.05;10.63;;;13.20;99.90;;;;;;2096951;28;20029;-70
2022/05/15 00:56:31;;;;;;;16.30;10.73;;;13.20;99.90;;;;;;2096393;28;20101;-69
2022/05/15 00:57:43;;;;;;;17.95;10.82;;;13.20;99.90;;;;;;2088760;28;20028;-68
2022/05/15 00:58:51;;;;;;;18.17;11.02;;;13.20;99.90;;;;;;2073584;28;20030;-70
2022/05/15 01:00:14;;;;;;;17.17;11.25;;;13.10;99.90;;;;;;2073955;28;20343;-70
2022/05/15 01:01:17;;;;;;;21.10;11.93;;;13.10;99.90;;;;;;2083449;28;20067;-70
2022/05/15 01:02:18;;;;;;;17.63;11.27;;;13.10;99.90;;;;;;2072470;28;20168;-70
2022/05/15 01:03:20;;;;;;;16.65;10.90;;;13.10;99.90;;;;;;2080643;28;20025;-69
2022/05/15 01:04:21;;;;;;;16.70;10.82;;;13.10;99.90;;;;;;2089253;28;20024;-70
2022/05/15 01:05:22;;;;;;;17.45;11.38;;;13.00;99.90;;;;;;2088596;28;20131;-70
2022/05/15 01:06:23;;;;;;;19.40;11.85;;;13.00;99.90;;;;;;2088992;28;20051;-70
2022/05/15 01:07:24;;;;;;;16.67;11.73;;;13.00;99.90;;;;;;2096848;28;20507;-69
2022/05/15 01:08:27;;;;;;;16.85;11.48;;;13.00;99.90;;;;;;2088263;28;20061;-70
2022/05/15 01:09:29;;;;;;;16.35;10.77;;;13.00;99.90;;;;;;2080675;28;20036;-70
2022/05/15 01:10:30;;;;;;;14.25;10.93;;;13.00;99.90;;;;;;2088481;28;20025;-70
2022/05/15 01:11:34;;;;;;;17.63;11.40;;;13.00;99.90;;;;;;2088739;28;20043;-70
2022/05/15 01:12:38;;;;;;;18.17;11.00;;;13.00;99.90;;;;;;2089009;28;20021;-70
2022/05/15 01:13:42;;;;;;;16.98;11.20;;;13.00;99.90;;;;;;2088689;28;20024;-69
2022/05/15 01:14:45;;;;;;;19.95;11.85;;;13.00;99.90;;;;;;2089155;28;20419;-69
2022/05/15 01:15:47;;;;;;;15.88;11.10;;;13.00;99.90;;;;;;2088483;28;20451;-70
2022/05/15 01:16:50;;;;;;;18.45;11.25;;;13.00;99.90;;;;;;2081349;28;20260;-70
2022/05/15 01:17:51;;;;;;;16.48;11.23;;;13.00;99.90;;;;;;2088344;28;20036;-69
2022/05/15 01:18:57;;;;;;;18.42;11.82;;;13.00;99.90;;;;;;2080121;28;20020;-70
2022/05/15 01:20:13;;;;;;;18.40;11.55;;;13.00;99.90;;;;;;2080764;28;20056;-69
2022/05/15 01:21:21;;;;;;;17.23;10.77;;;13.00;99.90;;;;;;2088981;28;20025;-70
2022/05/15 01:22:22;;;;;;;22.55;11.95;;;12.90;99.90;;;;;;2088460;28;20067;-69
2022/05/15 01:23:23;;;;;;;17.38;11.45;;;12.90;99.90;;;;;;2071995;28;20504;-70
2022/05/15 01:24:25;;;;;;;15.85;10.88;;;12.90;99.90;;;;;;2080361;28;20177;-69
2022/05/15 01:25:29;;;;;;;19.40;11.63;;;12.90;99.90;;;;;;2080334;28;20067;-69
2022/05/15 01:26:31;;;;;;;18.00;11.90;;;12.90;99.90;;;;;;2088518;28;20567;-69
2022/05/15 01:27:33;;;;;;;17.50;11.95;;;12.90;99.90;;;;;;2088310;28;20033;-70
2022/05/15 01:28:33;;;;;;;18.83;12.10;;;12.90;99.90;;;;;;2080488;28;20087;-70
2022/05/15 01:29:38;;;;;;;19.50;11.82;;;12.90;99.90;;;;;;2080099;28;20033;-70
2022/05/15 01:30:41;;;;;;;18.08;11.68;;;12.80;99.90;;;;;;2073664;28;20030;-70
2022/05/15 01:31:43;;;;;;;15.32;10.95;;;12.80;99.90;;;;;;2090305;28;20364;-70
2022/05/15 01:32:43;;;;;;;16.23;10.75;;;12.80;99.90;;;;;;2091143;28;20164;-71
2022/05/15 01:33:49;;;;;;;18.25;11.73;;;12.80;99.90;;;;;;2074484;28;20044;-69
2022/05/15 01:34:49;;;;;;;18.80;11.82;;;12.80;99.90;;;;;;2075979;28;20048;-70
2022/05/15 01:35:50;;;;;;;18.52;11.80;;;12.80;99.90;;;;;;2082070;28;20091;-70
2022/05/15 01:36:53;;;;;;;18.65;12.20;;;12.80;99.90;;;;;;2083012;28;20022;-70
2022/05/15 01:37:54;;;;;;;17.42;11.95;;;12.80;99.90;;;;;;2081933;28;20484;-69
2022/05/15 01:38:55;;;;;;;17.75;11.88;;;12.80;99.90;;;;;;2072942;28;20030;-70
2022/05/15 01:39:56;;;;;;;16.10;11.82;;;12.80;99.90;;;;;;2072136;28;20614;-69
2022/05/15 01:40:57;;;;;;;15.63;11.88;;;12.80;99.90;;;;;;2088344;28;20025;-70
2022/05/15 01:41:58;;;;;;;16.95;11.95;;;12.70;99.90;;;;;;2088825;28;20021;-70
2022/05/15 01:42:59;;;;;;;19.02;11.43;;;12.70;99.90;;;;;;2088214;28;20021;-70
2022/05/15 01:44:00;;;;;;;18.35;12.10;;;12.70;99.90;;;;;;2079869;28;20933;-70
2022/05/15 01:45:02;;;;;;;18.13;12.48;;;12.70;99.90;;;;;;2080103;28;20033;-70
2022/05/15 01:46:02;;;;;;;17.63;12.07;;;12.70;99.90;;;;;;2079906;28;20033;-70
2022/05/15 01:47:03;;;;;;;19.27;12.48;;;12.60;99.90;;;;;;2080009;28;20539;-71
2022/05/15 01:48:06;;;;;;;17.55;11.77;;;12.60;99.90;;;;;;2079716;28;20096;-70
2022/05/15 01:49:07;;;;;;;18.83;12.35;;;12.60;99.90;;;;;;2079877;28;20469;-70
2022/05/15 01:50:13;;;;;;;17.83;11.82;;;12.60;99.90;;;;;;2079852;28;20037;-69
2022/05/15 01:51:14;;;;;;;22.52;12.90;;;12.50;99.90;;;;;;2080350;28;20017;-70
2022/05/15 01:52:15;;;;;;;19.67;11.82;;;12.50;99.90;;;;;;2087936;28;20411;-70
2022/05/15 01:53:16;;;;;;;17.45;11.63;;;12.50;99.90;;;;;;2088116;28;20072;-70
2022/05/15 01:54:17;;;;;;;16.30;11.05;;;12.50;99.90;;;;;;2079802;28;20518;-70
2022/05/15 01:55:18;;;;;;;16.30;11.40;;;12.50;99.90;;;;;;2088562;28;20032;-70
2022/05/15 01:56:19;;;;;;;17.63;11.13;;;12.50;99.90;;;;;;2088199;28;20059;-70
2022/05/15 01:57:21;;;;;;;15.95;11.35;;;12.40;99.90;;;;;;2080029;28;20022;-71
2022/05/15 01:58:23;;;;;;;15.90;11.10;;;12.40;99.90;;;;;;2088031;28;20021;-71
2022/05/15 01:59:24;;;;;;;16.58;10.95;;;12.40;99.90;;;;;;2087999;28;20025;-70
2022/05/15 02:00:26;;;;;;;16.25;10.80;;;12.30;99.90;;;;;;2079837;28;20551;-70
2022/05/15 02:01:28;;;;;;;16.67;10.63;;;12.30;99.90;;;;;;2088240;28;20035;-70
2022/05/15 02:02:30;;;;;;;16.88;11.10;;;12.30;99.90;;;;;;2096137;28;20025;-70
2022/05/15 02:03:30;;;;;;;14.05;10.07;;;12.30;99.90;;;;;;2088138;28;20029;-70
2022/05/15 02:04:32;;;;;;;17.00;10.73;;;12.30;99.90;;;;;;2079801;28;20029;-70
2022/05/15 02:05:33;;;;;;;18.98;11.10;;;12.30;99.90;;;;;;2079770;28;20107;-70
2022/05/15 02:06:36;;;;;;;15.63;10.57;;;12.30;99.90;;;;;;2088336;28;20203;-70
2022/05/15 02:07:37;;;;;;;15.88;10.23;;;12.20;99.90;;;;;;2088144;28;20609;-70
2022/05/15 02:08:38;;;;;;;18.17;10.73;;;12.20;99.90;;;;;;2087922;28;20033;-70
2022/05/15 02:09:40;;;;;;;18.13;10.70;;;12.20;99.90;;;;;;2087980;28;20037;-70
2022/05/15 02:10:41;;;;;;;15.65;10.25;;;12.20;99.90;;;;;;2079983;28;20017;-70
2022/05/15 02:11:42;;;;;;;18.92;11.00;;;12.20;99.90;;;;;;2071752;28;20493;-70
2022/05/15 02:12:43;;;;;;;17.23;10.77;;;12.20;99.90;;;;;;2063578;28;20507;-70
2022/05/15 02:13:44;;;;;;;15.30;10.32;;;12.20;99.90;;;;;;2080070;28;20040;-70
2022/05/15 02:14:45;;;;;;;15.82;10.32;;;12.20;99.90;;;;;;2088751;28;20078;-68
2022/05/15 02:15:45;;;;;;;19.20;10.88;;;12.20;99.90;;;;;;2096352;28;20404;-70
2022/05/15 02:16:46;;;;;;;15.70;10.20;;;12.20;99.90;;;;;;2096338;28;20063;-70
2022/05/15 02:17:46;;;;;;;15.65;10.88;;;12.20;99.90;;;;;;2087753;28;20074;-70
2022/05/15 02:18:47;;;;;;;16.55;9.95;;;12.20;99.90;;;;;;2079631;28;20029;-69
2022/05/15 02:19:48;;;;;;;17.85;10.15;;;12.10;99.90;;;;;;2087952;28;20028;-70
2022/05/15 02:20:50;;;;;;;15.63;10.02;;;12.20;99.90;;;;;;2087924;28;20481;-70
2022/05/15 02:21:50;;;;;;;16.60;10.90;;;12.10;99.90;;;;;;2087957;28;20080;-70
2022/05/15 02:22:51;;;;;;;15.57;10.57;;;12.10;99.90;;;;;;2096161;28;20059;-70
2022/05/15 02:23:52;;;;;;;13.27;10.25;;;12.10;99.90;;;;;;2096190;28;20025;-70
2022/05/15 02:24:53;;;;;;;15.88;10.73;;;12.10;99.90;;;;;;2079586;28;20033;-70
2022/05/15 02:25:55;;;;;;;15.07;10.48;;;12.10;99.90;;;;;;2079713;28;20388;-70
2022/05/15 02:26:57;;;;;;;16.38;10.57;;;12.10;99.90;;;;;;2079787;28;20550;-70
2022/05/15 02:27:58;;;;;;;15.25;10.23;;;12.10;99.90;;;;;;2087920;28;20033;-70
2022/05/15 02:28:58;;;;;;;14.80;10.00;;;12.10;99.90;;;;;;2096156;28;20080;-70
2022/05/15 02:30:01;;;;;;;14.40;10.43;;;12.10;99.90;;;;;;2079570;28;20080;-70
2022/05/15 02:31:01;;;;;;;15.68;10.43;;;12.10;99.90;;;;;;2080089;28;20423;-72
2022/05/15 02:32:03;;;;;;;16.45;10.60;;;12.10;99.90;;;;;;2087921;28;20537;-70
2022/05/15 02:33:05;;;;;;;15.65;10.18;;;12.10;99.90;;;;;;2087987;28;20055;-70
2022/05/15 02:34:06;;;;;;;14.98;10.55;;;12.10;99.90;;;;;;2088535;28;20100;-70
2022/05/15 02:35:09;;;;;;;15.98;10.43;;;12.00;99.90;;;;;;2079678;28;20071;-70
2022/05/15 02:36:10;;;;;;;14.95;10.48;;;12.00;99.90;;;;;;2071791;28;20516;-70
2022/05/15 02:37:11;;;;;;;14.55;10.00;;;12.00;99.90;;;;;;2079565;28;20017;-70
2022/05/15 02:38:12;;;;;;;15.18;10.57;;;12.00;99.90;;;;;;2071384;28;20492;-70
2022/05/15 02:39:14;;;;;;;15.45;10.30;;;12.00;99.90;;;;;;2079506;28;20029;-70
2022/05/15 02:40:17;;;;;;;15.27;10.30;;;12.00;99.90;;;;;;2079278;28;20056;-70
2022/05/15 02:41:17;;;;;;;16.05;10.90;;;12.00;99.90;;;;;;2087457;28;20699;-70
2022/05/15 02:42:21;;;;;;;17.30;10.40;;;12.00;99.90;;;;;;2087788;28;20461;-70
2022/05/15 02:43:22;;;;;;;14.85;10.82;;;12.00;99.90;;;;;;2079873;28;20520;-70
2022/05/15 02:44:23;;;;;;;15.48;10.30;;;12.00;99.90;;;;;;2079556;28;20124;-70
2022/05/15 02:45:27;;;;;;;16.00;10.55;;;12.00;99.90;;;;;;2087613;28;20071;-70
2022/05/15 02:46:28;;;;;;;17.70;11.02;;;12.00;99.90;;;;;;2079557;28;20033;-74
2022/05/15 02:47:30;;;;;;;17.08;11.13;;;12.00;99.90;;;;;;2063646;28;20524;-70
2022/05/15 02:51:09;;;;;;;17.45;11.02;;;12.00;99.90;;;;;;2090130;28;20152;-70
2022/05/15 02:52:10;;;;;;;19.17;11.05;;;11.90;99.90;;;;;;2079468;28;20025;-70
2022/05/15 02:53:11;;;;;;;17.75;10.50;;;11.90;99.90;;;;;;2071429;28;20576;-70
2022/05/15 02:54:12;;;;;;;18.13;10.55;;;11.90;99.90;;;;;;2079472;28;20076;-70
2022/05/15 02:55:13;;;;;;;21.50;10.55;;;11.90;99.90;;;;;;2079329;28;20026;-71
2022/05/15 02:56:22;;;;;;;16.70;10.63;;;11.90;99.90;;;;;;2079306;28;20128;-69
2022/05/15 02:57:22;;;;;;;16.98;10.13;;;11.90;99.90;;;;;;2081799;28;20021;-70
2022/05/15 02:58:23;;;;;;;15.30;9.80;;;11.90;99.90;;;;;;2087458;28;20020;-69
2022/05/15 02:59:24;;;;;;;16.55;10.20;;;11.90;99.90;;;;;;2071124;28;20072;-69
2022/05/15 03:00:26;;;;;;;14.95;9.90;;;11.90;99.90;;;;;;2071186;28;20485;-69
2022/05/15 03:01:26;;;;;;;16.95;10.57;;;11.90;99.90;;;;;;2087472;28;20660;-69
2022/05/15 03:02:27;;;;;;;16.10;10.50;;;11.90;99.90;;;;;;2088095;28;20032;-69
2022/05/15 03:03:28;;;;;;;19.88;10.77;;;11.90;99.90;;;;;;2088095;28;20086;-69
2022/05/15 03:04:30;;;;;;;16.95;10.23;;;11.80;99.90;;;;;;2087382;28;20075;-69
2022/05/15 03:05:31;;;;;;;15.98;10.02;;;11.80;99.90;;;;;;2087703;28;20033;-70
2022/05/15 03:06:32;;;;;;;17.55;10.32;;;11.80;99.90;;;;;;2087486;28;20577;-70
2022/05/15 03:07:33;;;;;;;15.45;10.35;;;11.80;99.90;;;;;;2087580;28;20025;-69
2022/05/15 03:08:36;;;;;;;14.05;10.00;;;11.70;99.90;;;;;;2088029;28;20451;-70
2022/05/15 03:09:36;;;;;;;15.38;10.18;;;11.70;99.90;;;;;;2088293;28;20027;-70
2022/05/15 03:10:37;;;;;;;16.17;10.18;;;11.70;99.90;;;;;;2088204;28;20479;-70
2022/05/15 03:11:39;;;;;;;16.67;9.77;;;11.70;99.90;;;;;;2088412;28;20380;-70
2022/05/15 03:12:39;;;;;;;13.02;9.80;;;11.70;99.90;;;;;;2087546;28;20031;-70
2022/05/15 03:13:41;;;;;;;15.68;9.52;;;11.70;99.90;;;;;;2079395;28;20029;-70
2022/05/15 03:14:42;;;;;;;15.55;10.30;;;11.70;99.90;;;;;;2079580;28;20037;-70
2022/05/15 03:15:43;;;;;;;16.00;10.10;;;11.70;99.90;;;;;;2087673;28;20115;-70
2022/05/15 03:16:43;;;;;;;19.65;10.23;;;11.70;99.90;;;;;;2088144;28;20471;-70
2022/05/15 03:17:44;;;;;;;14.70;10.20;;;11.70;99.90;;;;;;2087315;28;20685;-70
2022/05/15 03:18:47;;;;;;;16.02;9.98;;;11.70;99.90;;;;;;2087567;28;20017;-70
2022/05/15 03:19:48;;;;;;;16.98;9.85;;;11.60;99.90;;;;;;2088340;28;20029;-70
2022/05/15 03:20:49;;;;;;;14.50;9.18;;;11.70;99.90;;;;;;2088175;28;20047;-70
2022/05/15 03:21:50;;;;;;;15.32;9.63;;;11.60;99.90;;;;;;2088112;28;20025;-70
2022/05/15 03:22:50;;;;;;;13.38;9.43;;;11.70;99.90;;;;;;2088194;28;20028;-70
2022/05/15 03:23:51;;;;;;;15.10;10.43;;;11.70;99.90;;;;;;2088321;28;20751;-70
2022/05/15 03:24:51;;;;;;;17.60;10.60;;;11.70;99.90;;;;;;2079193;28;20503;-70
2022/05/15 03:25:52;;;;;;;14.13;9.77;;;11.60;99.90;;;;;;2079561;28;20021;-70
2022/05/15 03:26:53;;;;;;;15.15;10.10;;;11.60;99.90;;;;;;2087659;28;20071;-70
2022/05/15 03:27:54;;;;;;;17.85;10.65;;;11.60;99.90;;;;;;2087527;28;20025;-70
2022/05/15 03:28:55;;;;;;;15.13;9.98;;;11.60;99.90;;;;;;2079080;28;20028;-70
2022/05/15 03:29:57;;;;;;;17.23;10.93;;;11.60;99.90;;;;;;2079273;28;20026;-70
2022/05/15 03:30:58;;;;;;;13.88;9.75;;;11.60;99.90;;;;;;2087391;28;20021;-70
2022/05/15 03:31:58;;;;;;;15.80;10.20;;;11.60;99.90;;;;;;2079231;28;20021;-70
2022/05/15 03:32:59;;;;;;;16.92;10.48;;;11.60;99.90;;;;;;2079056;28;20056;-69
2022/05/15 03:34:00;;;;;;;15.30;10.45;;;11.60;99.90;;;;;;2079402;28;20054;-69
2022/05/15 03:35:00;;;;;;;15.55;10.27;;;11.60;99.90;;;;;;2087575;28;20545;-70
2022/05/15 03:36:02;;;;;;;15.73;10.60;;;11.60;99.90;;;;;;2088137;28;20060;-70
2022/05/15 03:37:03;;;;;;;17.30;10.98;;;11.60;99.90;;;;;;2079108;28;20013;-70
2022/05/15 03:38:04;;;;;;;16.88;10.77;;;11.60;99.90;;;;;;2079094;28;20029;-70
2022/05/15 03:39:09;;;;;;;19.30;11.00;;;11.60;99.90;;;;;;2088016;28;20523;-70
2022/05/15 03:40:11;;;;;;;17.88;11.05;;;11.60;99.90;;;;;;2095749;28;20064;-70
2022/05/15 03:41:13;;;;;;;15.40;10.27;;;11.60;99.90;;;;;;2095737;28;20028;-71
2022/05/15 03:42:13;;;;;;;16.10;10.75;;;11.60;99.90;;;;;;2087413;28;20144;-70
2022/05/15 03:43:14;;;;;;;16.38;10.57;;;11.60;99.90;;;;;;2087368;28;20048;-69
2022/05/15 03:44:15;;;;;;;15.70;10.73;;;11.60;99.90;;;;;;2087322;28;20036;-70
2022/05/15 03:45:16;;;;;;;17.95;10.73;;;11.60;99.90;;;;;;2079103;28;20826;-69
2022/05/15 03:46:17;;;;;;;18.00;10.32;;;11.60;99.90;;;;;;2078937;28;20044;-69
2022/05/15 03:47:18;;;;;;;14.80;10.70;;;11.60;99.90;;;;;;2079185;28;20424;-68
2022/05/15 03:48:19;;;;;;;14.05;10.18;;;11.70;99.90;;;;;;2087462;28;20074;-69
2022/05/15 03:49:19;;;;;;;15.50;10.35;;;11.70;99.90;;;;;;2087238;28;20029;-69
2022/05/15 03:50:23;;;;;;;16.27;10.55;;;11.70;99.90;;;;;;2078953;28;20030;-69
2022/05/15 03:51:25;;;;;;;16.25;10.77;;;11.70;99.90;;;;;;2087558;28;20033;-70
2022/05/15 03:52:25;;;;;;;16.98;10.80;;;11.70;99.90;;;;;;2088266;28;20039;-69
2022/05/15 03:53:26;;;;;;;14.75;10.10;;;11.80;99.90;;;;;;2080891;28;20677;-69
2022/05/15 03:54:27;;;;;;;15.77;10.60;;;11.80;99.90;;;;;;2089100;28;20029;-69
2022/05/15 03:55:27;;;;;;;19.08;10.60;;;11.80;99.90;;;;;;2097316;28;20029;-69
2022/05/15 03:57:49;;;;;;;15.98;10.07;;;11.90;99.90;;;;;;2083089;28;20504;-69
2022/05/15 03:58:50;;;;;;;19.17;10.80;;;11.90;99.90;;;;;;2080966;28;20018;-70
2022/05/15 03:59:51;;;;;;;17.00;11.27;;;11.90;99.90;;;;;;2089037;28;20033;-70
2022/05/15 04:00:52;;;;;;;17.85;11.43;;;11.90;99.90;;;;;;2088891;28;20105;-70
2022/05/15 04:01:53;;;;;;;15.70;10.82;;;11.90;99.90;;;;;;2080787;28;20017;-70
2022/05/15 04:02:54;;;;;;;15.70;11.23;;;11.90;99.90;;;;;;2080791;28;20547;-68
2022/05/15 04:03:55;;;;;;;16.35;10.82;;;11.90;99.90;;;;;;2088807;28;20112;-70
2022/05/15 04:04:56;;;;;;;17.27;10.23;;;12.00;99.90;;;;;;2088866;28;20048;-70
2022/05/15 04:05:57;;;;;;;14.98;10.48;;;12.00;99.90;;;;;;2088952;28;20410;-70
2022/05/15 04:06:59;;;;;;;16.77;10.43;;;12.10;99.90;;;;;;2080895;28;20101;-69
2022/05/15 04:08:00;;;;;;;12.68;10.25;;;12.10;99.90;;;;;;2080943;28;20067;-69
2022/05/15 04:09:01;;;;;;;14.48;10.32;;;12.10;99.90;;;;;;2089768;28;20021;-69
2022/05/15 04:10:02;;;;;;;17.17;10.43;;;12.20;99.90;;;;;;2089702;28;20104;-70
2022/05/15 04:11:03;;;;;;;17.13;10.60;;;12.30;99.90;;;;;;2089279;28;20430;-70
2022/05/15 04:12:04;;;;;;;14.73;10.27;;;12.40;99.90;;;;;;2080930;28;20052;-70
2022/05/15 04:13:05;;;;;;;14.82;10.32;;;12.60;99.90;;;;;;2089047;28;20055;-70
2022/05/15 04:14:06;;;;;;;17.95;10.48;;;12.90;99.90;;;;;;2089613;28;20025;-71
2022/05/15 04:15:08;;;;;;;14.43;10.13;;;13.10;99.90;;;;;;2080666;28;20021;-70
2022/05/15 04:16:09;;;;;;;18.17;9.75;;;13.40;99.90;;;;;;2072721;28;20705;-70
2022/05/15 04:17:09;;;;;;;15.73;10.10;;;13.70;99.90;;;;;;2080526;28;20025;-70
2022/05/15 04:18:11;;;;;;;16.25;10.25;;;13.90;99.90;;;;;;2080208;28;20064;-69
2022/05/15 04:19:12;;;;;;;15.07;9.70;;;14.10;99.90;;;;;;2080464;28;20052;-70
2022/05/15 04:20:16;;;;;;;14.43;9.88;;;14.30;99.90;;;;;;2088846;28;20017;-70
2022/05/15 04:21:17;;;;;;;14.65;9.27;;;14.50;99.90;;;;;;2088787;28;20032;-69
2022/05/15 04:22:18;;;;;;;13.95;9.23;;;14.70;99.90;;;;;;2080550;28;20025;-70
2022/05/15 04:23:18;;;;;;;15.73;9.07;;;14.90;99.90;;;;;;2080490;28;20037;-70
2022/05/15 04:24:19;;;;;;;15.60;9.30;;;15.10;99.90;;;;;;2080433;28;20029;-70
2022/05/15 04:25:20;;;;;;;15.93;9.20;;;15.30;99.90;;;;;;2088917;28;20104;-69
2022/05/15 04:26:21;;;;;;;11.85;8.80;;;15.40;99.90;;;;;;2089365;28;20025;-69
2022/05/15 04:27:24;;;;;;;14.07;8.88;;;15.50;99.60;;;;;;2088791;28;20455;-69
2022/05/15 04:28:25;;;;;;;12.30;8.60;;;15.70;98.90;;;;;;2080576;28;20045;-69
2022/05/15 04:29:26;;;;;;;13.27;8.63;;;15.80;98.20;;;;;;2080495;28;20037;-70
2022/05/15 04:30:27;;;;;;;16.10;9.30;;;15.90;97.50;;;;;;2088822;28;20064;-70
2022/05/15 04:31:28;;;;;;;16.45;9.48;;;16.10;96.90;;;;;;2088684;28;20033;-70
2022/05/15 04:32:29;;;;;;;12.48;9.20;;;16.10;96.40;;;;;;2080371;28;20080;-70
2022/05/15 04:33:29;;;;;;;13.02;9.40;;;16.30;96.00;;;;;;2080623;28;20042;-70
2022/05/15 04:34:30;;;;;;;12.60;8.80;;;16.40;95.40;;;;;;2088844;28;20025;-70
2022/05/15 04:35:31;;;;;;;12.98;9.15;;;16.50;94.70;;;;;;2089658;28;20502;-69
2022/05/15 04:36:32;;;;;;;15.02;9.07;;;16.70;94.00;;;;;;2089440;28;20051;-70
2022/05/15 04:37:33;;;;;;;12.20;8.43;;;16.70;93.40;;;;;;2089390;28;20794;-70
2022/05/15 04:38:34;;;;;;;13.55;9.18;;;16.80;93.00;;;;;;2088539;28;20033;-69
2022/05/15 04:39:34;;;;;;;12.90;8.68;;;16.90;92.50;;;;;;2088906;28;20052;-69
2022/05/15 04:40:35;;;;;;;12.70;8.40;;;17.00;92.10;;;;;;2089360;28;20037;-69
2022/05/15 04:41:36;;;;;;;13.27;8.80;;;17.10;91.80;;;;;;2089495;28;20041;-70
2022/05/15 04:42:37;;;;;;;11.48;8.52;;;17.20;91.30;;;;;;2089439;28;20021;-69
2022/05/15 04:43:37;;;;;;;12.95;8.40;;;17.30;90.80;;;;;;2089311;28;20115;-70
2022/05/15 04:44:38;;;;;;;13.00;8.93;;;17.40;90.50;;;;;;2089127;28;20036;-69
2022/05/15 04:45:38;;;;;;;12.10;9.05;;;17.50;90.10;;;;;;2089146;28;20025;-69
2022/05/15 04:46:40;;;;;;;12.60;8.38;;;17.60;89.60;;;;;;2089259;28;20471;-69
2022/05/15 04:47:44;;;;;;;12.77;8.80;;;17.70;88.80;;;;;;2088574;28;20036;-69
2022/05/15 04:48:44;;;;;;;12.45;8.55;;;17.80;88.00;;;;;;2088618;28;20035;-70
2022/05/15 04:49:45;;;;;;;13.07;8.65;;;17.90;86.70;;;;;;2089292;28;20052;-70
2022/05/15 04:50:45;;;;;;;13.68;8.80;;;18.00;86.00;;;;;;2089263;28;20025;-70
2022/05/15 04:51:46;;;;;;;13.15;9.02;;;18.10;85.40;;;;;;2088879;28;20075;-70
2022/05/15 04:52:47;;;;;;;11.95;8.70;;;18.10;84.70;;;;;;2080432;28;20086;-70
2022/05/15 04:53:47;;;;;;;11.80;8.70;;;18.10;84.20;;;;;;2088460;28;20032;-71
2022/05/15 04:54:48;;;;;;;13.25;8.57;;;18.20;83.70;;;;;;2096987;28;20474;-70
2022/05/15 04:55:49;;;;;;;13.88;8.55;;;18.30;82.90;;;;;;2088892;28;20033;-70
2022/05/15 04:56:49;;;;;;;10.98;8.40;;;18.30;82.40;;;;;;2080422;28;20021;-70
2022/05/15 04:57:50;;;;;;;12.75;8.23;;;18.40;81.70;;;;;;2088735;28;20097;-71
2022/05/15 04:58:51;;;;;;;12.88;8.75;;;18.50;81.20;;;;;;2089201;28;20572;-71
2022/05/15 04:59:51;;;;;;;12.75;8.30;;;18.50;80.80;;;;;;2089421;28;20090;-71
2022/05/15 05:00:52;;;;;;;13.70;8.65;;;18.60;80.30;;;;;;2088490;28;20033;-71
2022/05/15 05:01:53;;;;;;;13.65;8.88;;;18.70;79.90;;;;;;2088514;28;20095;-71
2022/05/15 05:02:53;;;;;;;12.80;7.90;;;18.70;79.50;;;;;;2089283;28;20525;-71
2022/05/15 05:03:55;;;;;;;13.63;8.40;;;18.80;79.20;;;;;;2088479;28;20021;-70
2022/05/15 05:04:59;;;;;;;12.52;8.18;;;18.80;78.60;;;;;;2088998;28;20019;-69
2022/05/15 05:06:00;;;;;;;13.13;8.75;;;18.90;78.10;;;;;;2089395;28;20035;-69
2022/05/15 05:07:00;;;;;;;12.40;8.73;;;18.90;77.90;;;;;;2089072;28;20029;-69
2022/05/15 05:08:01;;;;;;;14.50;8.95;;;18.90;77.50;;;;;;2088268;28;20023;-70
2022/05/15 05:09:02;;;;;;;12.48;8.07;;;19.00;77.30;;;;;;2080264;28;20071;-70
2022/05/15 05:10:04;;;;;;;10.88;8.20;;;19.10;76.90;;;;;;2088398;28;20075;-70
2022/05/15 05:11:05;;;;;;;12.30;8.00;;;19.20;76.70;;;;;;2096804;28;20031;-69
2022/05/15 05:12:06;;;;;;;14.02;8.38;;;19.30;76.40;;;;;;2096831;28;20048;-71
2022/05/15 05:13:07;;;;;;;11.75;8.52;;;19.40;75.60;;;;;;2089018;28;20035;-69
2022/05/15 05:14:08;;;;;;;11.55;8.40;;;19.40;75.30;;;;;;2088980;28;20029;-71
2022/05/15 05:15:12;;;;;;;13.15;8.13;;;19.40;74.80;;;;;;2088992;28;20021;-71
2022/05/15 05:16:13;;;;;;;12.63;8.18;;;19.50;74.30;;;;;;2088805;28;20035;-71
2022/05/15 05:17:15;;;;;;;11.93;8.63;;;19.50;74.30;;;;;;2088793;28;20029;-70
2022/05/15 05:18:17;;;;;;;11.10;7.93;;;19.60;74.20;;;;;;2088568;28;20079;-70